Time;durP1;ratioP1;P1;durP2;ratioP2;P2;SDS_P1;SDS_P2;PMS_P1;PMS_P2;Temp;Humidity;BMP_temperature;BMP_pressure;BME280_temperature;BME280_humidity;BME280_pressure;Samples;Min_cycle;Max_cycle;Signal;HPM_P1;HPM_P2
2023/01/08 00:02:26;;;;;;;0.50;0.50;;;18.20;79.30;;;;;;5036158;28;48053;-71
2023/01/08 00:04:54;;;;;;;0.70;0.50;;;18.20;79.40;;;;;;5026252;28;45484;-70
2023/01/08 00:07:21;;;;;;;0.55;0.40;;;18.20;80.30;;;;;;5030423;28;45411;-71
2023/01/08 00:09:49;;;;;;;0.85;0.43;;;18.20;79.30;;;;;;5023409;28;45551;-71
2023/01/08 00:12:16;;;;;;;0.82;0.40;;;18.20;79.20;;;;;;5030776;28;47092;-71
2023/01/08 00:14:42;;;;;;;0.85;0.40;;;18.30;79.40;;;;;;5030743;28;45390;-71
2023/01/08 00:17:09;;;;;;;2.65;0.55;;;18.20;79.10;;;;;;5033736;28;45365;-71
2023/01/08 00:19:36;;;;;;;0.40;0.30;;;18.20;79.10;;;;;;5034179;28;45496;-71
2023/01/08 00:22:04;;;;;;;0.60;0.40;;;18.20;78.80;;;;;;5031037;28;47745;-71
2023/01/08 00:24:31;;;;;;;0.40;0.30;;;18.20;78.50;;;;;;5030911;28;45266;-71
2023/01/08 00:26:58;;;;;;;0.47;0.30;;;18.20;78.60;;;;;;5033697;28;45314;-71
2023/01/08 00:29:24;;;;;;;0.38;0.38;;;18.20;78.50;;;;;;5036702;28;45757;-71
2023/01/08 00:31:52;;;;;;;0.52;0.30;;;18.20;78.50;;;;;;5027830;28;45340;-71
2023/01/08 00:34:19;;;;;;;0.80;0.52;;;18.20;78.40;;;;;;5036808;28;45195;-71
2023/01/08 00:36:45;;;;;;;1.33;0.50;;;18.20;78.50;;;;;;5039353;28;45275;-71
2023/01/08 00:39:13;;;;;;;0.73;0.50;;;18.20;78.40;;;;;;5033281;28;45511;-71
2023/01/08 00:41:43;;;;;;;0.45;0.30;;;18.20;78.60;;;;;;5024310;28;45772;-72
2023/01/08 00:44:09;;;;;;;1.15;0.50;;;18.20;78.50;;;;;;5025069;28;45691;-71
2023/01/08 00:46:36;;;;;;;0.43;0.32;;;18.20;78.20;;;;;;5023015;28;45303;-71
2023/01/08 00:49:03;;;;;;;0.47;0.43;;;18.10;78.40;;;;;;5025351;28;45543;-70
2023/01/08 00:51:30;;;;;;;0.68;0.47;;;18.10;78.60;;;;;;5026446;28;47987;-71
2023/01/08 00:53:57;;;;;;;0.22;0.20;;;18.10;78.50;;;;;;5025371;28;45259;-70
2023/01/08 00:56:27;;;;;;;0.60;0.40;;;18.10;78.60;;;;;;5025269;28;45309;-71
2023/01/08 00:58:54;;;;;;;0.82;0.55;;;18.10;78.50;;;;;;5026200;28;45568;-70
2023/01/08 01:01:20;;;;;;;0.55;0.47;;;18.10;78.70;;;;;;5024646;28;45529;-71
2023/01/08 01:03:47;;;;;;;0.82;0.50;;;18.10;78.60;;;;;;5025902;28;45311;-71
2023/01/08 01:06:14;;;;;;;0.70;0.50;;;18.10;78.50;;;;;;5035542;28;45266;-71
2023/01/08 01:08:43;;;;;;;0.60;0.50;;;18.10;78.90;;;;;;5037401;28;45565;-71
2023/01/08 01:11:13;;;;;;;0.52;0.50;;;18.10;78.80;;;;;;5034449;28;48418;-72
2023/01/08 01:13:41;;;;;;;0.45;0.40;;;18.10;78.60;;;;;;5038870;28;45270;-71
2023/01/08 01:16:09;;;;;;;0.40;0.40;;;18.10;78.70;;;;;;5023399;28;45296;-71
2023/01/08 01:18:36;;;;;;;0.90;0.50;;;18.10;78.80;;;;;;5032667;28;45419;-71
2023/01/08 01:21:09;;;;;;;1.58;0.60;;;18.20;78.80;;;;;;5031478;28;45313;-71
2023/01/08 01:23:36;;;;;;;0.40;0.40;;;18.20;78.70;;;;;;5040278;28;45344;-71
2023/01/08 01:26:03;;;;;;;0.75;0.60;;;18.20;78.40;;;;;;5038492;28;45382;-71
2023/01/08 01:28:30;;;;;;;0.35;0.30;;;18.10;78.40;;;;;;5046058;28;45272;-71
2023/01/08 01:30:58;;;;;;;1.02;0.55;;;18.20;78.30;;;;;;5029956;28;47834;-71
2023/01/08 01:33:25;;;;;;;1.77;0.40;;;18.10;78.10;;;;;;5025990;28;45487;-71
2023/01/08 01:36:00;;;;;;;0.55;0.40;;;18.10;78.00;;;;;;5025972;28;45311;-71
2023/01/08 01:38:26;;;;;;;0.93;0.60;;;18.10;78.00;;;;;;5026171;28;45421;-71
2023/01/08 01:40:53;;;;;;;0.95;0.60;;;18.10;78.10;;;;;;5025559;28;46649;-71
2023/01/08 01:43:37;;;;;;;0.95;0.50;;;18.10;78.00;;;;;;5025521;28;45218;-71
2023/01/08 01:46:19;;;;;;;0.75;0.50;;;18.10;78.20;;;;;;5025926;28;45251;-71
2023/01/08 01:48:48;;;;;;;1.13;0.60;;;18.10;78.00;;;;;;5026484;28;45353;-71
2023/01/08 01:51:15;;;;;;;1.38;0.45;;;18.10;77.90;;;;;;5025481;28;47294;-72
2023/01/08 01:53:42;;;;;;;1.13;0.40;;;18.10;78.10;;;;;;5025610;28;45259;-71
2023/01/08 01:56:09;;;;;;;0.82;0.52;;;18.10;78.00;;;;;;5026036;28;45358;-71
2023/01/08 01:58:36;;;;;;;0.70;0.60;;;18.20;78.30;;;;;;5025252;28;45471;-71
2023/01/08 02:01:07;;;;;;;0.30;0.30;;;18.10;78.20;;;;;;5025047;28;46357;-71
2023/01/08 02:03:36;;;;;;;0.50;0.47;;;18.20;78.60;;;;;;5025690;28;45306;-71
2023/01/08 02:06:11;;;;;;;1.30;0.55;;;18.20;78.40;;;;;;5025467;28;45349;-71
2023/01/08 02:08:46;;;;;;;1.50;0.50;;;18.20;78.40;;;;;;5025194;28;45501;-71
2023/01/08 02:11:22;;;;;;;1.50;0.52;;;18.20;78.40;;;;;;5016265;28;46398;-71
2023/01/08 02:13:55;;;;;;;1.25;0.60;;;18.20;78.40;;;;;;5024735;28;45330;-71
2023/01/08 02:16:28;;;;;;;0.68;0.47;;;18.20;78.60;;;;;;5025001;28;45349;-71
2023/01/08 02:19:00;;;;;;;0.52;0.50;;;18.20;78.50;;;;;;5025551;28;45371;-71
2023/01/08 02:21:33;;;;;;;0.55;0.55;;;18.20;78.40;;;;;;5021926;28;46415;-71
2023/01/08 02:24:06;;;;;;;0.50;0.40;;;18.30;78.60;;;;;;5025034;28;45289;-71
2023/01/08 02:26:36;;;;;;;1.45;0.60;;;18.20;78.20;;;;;;5024769;28;45311;-71
2023/01/08 02:29:07;;;;;;;0.52;0.30;;;18.20;78.00;;;;;;5025296;28;45452;-71
2023/01/08 02:31:36;;;;;;;0.57;0.40;;;18.20;77.70;;;;;;5025021;28;45498;-71
2023/01/08 02:34:17;;;;;;;0.50;0.50;;;18.20;77.80;;;;;;5024964;28;45277;-71
2023/01/08 02:36:46;;;;;;;2.80;0.60;;;18.20;77.80;;;;;;5025170;28;45329;-71
2023/01/08 02:39:24;;;;;;;0.73;0.60;;;18.20;77.70;;;;;;5024727;28;45536;-71
2023/01/08 02:42:06;;;;;;;1.25;0.55;;;18.20;77.80;;;;;;5024614;28;48385;-71
2023/01/08 02:44:54;;;;;;;0.50;0.45;;;18.20;77.80;;;;;;5024528;28;45455;-71
2023/01/08 02:47:25;;;;;;;1.00;0.60;;;18.20;77.70;;;;;;5024487;28;45529;-71
2023/01/08 02:50:00;;;;;;;0.90;0.50;;;18.10;77.80;;;;;;5024770;28;45204;-71
2023/01/08 02:52:29;;;;;;;0.60;0.52;;;18.10;78.10;;;;;;5021699;28;45403;-71
2023/01/08 02:54:59;;;;;;;1.40;0.60;;;18.10;78.30;;;;;;5024581;28;45323;-71
2023/01/08 02:57:41;;;;;;;0.50;0.47;;;18.10;78.20;;;;;;5023819;28;45291;-71
2023/01/08 03:00:09;;;;;;;0.88;0.60;;;18.10;78.80;;;;;;5024272;28;45346;-71
2023/01/08 03:02:39;;;;;;;0.70;0.50;;;18.10;78.80;;;;;;5023648;28;45516;-71
2023/01/08 03:05:14;;;;;;;1.48;0.70;;;18.10;78.70;;;;;;5015260;28;45990;-71
2023/01/08 03:07:41;;;;;;;1.27;0.47;;;18.10;78.90;;;;;;5018320;28;45318;-71
2023/01/08 03:10:09;;;;;;;1.27;0.50;;;18.10;78.60;;;;;;5024819;28;45432;-71
2023/01/08 03:12:49;;;;;;;0.63;0.50;;;18.10;78.70;;;;;;5024226;28;46650;-72
2023/01/08 03:15:22;;;;;;;0.90;0.50;;;18.10;78.60;;;;;;5024383;28;45296;-71
2023/01/08 03:17:52;;;;;;;0.85;0.60;;;18.20;78.60;;;;;;5024412;28;45405;-71
2023/01/08 03:20:22;;;;;;;0.85;0.65;;;18.20;78.60;;;;;;5024306;28;45327;-71
2023/01/08 03:22:52;;;;;;;0.70;0.63;;;18.20;78.50;;;;;;5024014;28;46284;-71
2023/01/08 03:25:22;;;;;;;1.88;0.70;;;18.20;78.70;;;;;;5022903;28;45801;-71
2023/01/08 03:27:54;;;;;;;0.57;0.40;;;18.20;78.50;;;;;;5022879;28;45199;-71
2023/01/08 03:30:22;;;;;;;0.73;0.57;;;18.20;78.50;;;;;;5022024;28;45266;-71
2023/01/08 03:32:50;;;;;;;0.82;0.60;;;18.20;78.20;;;;;;5022222;28;45585;-70
2023/01/08 03:35:22;;;;;;;0.88;0.55;;;18.20;78.30;;;;;;5022060;28;45440;-72
2023/01/08 03:37:54;;;;;;;0.40;0.38;;;18.10;78.30;;;;;;5022568;28;45258;-71
2023/01/08 03:40:25;;;;;;;0.63;0.50;;;18.10;78.00;;;;;;5022297;28;45156;-71
2023/01/08 03:42:54;;;;;;;1.15;0.70;;;18.10;78.20;;;;;;5021616;28;46735;-72
2023/01/08 03:45:22;;;;;;;0.60;0.50;;;18.10;78.10;;;;;;5021809;28;46091;-72
2023/01/08 03:47:50;;;;;;;1.80;0.63;;;18.10;78.20;;;;;;5022682;28;45337;-71
2023/01/08 03:50:22;;;;;;;0.45;0.38;;;18.10;78.20;;;;;;5021764;28;45441;-72
2023/01/08 03:52:50;;;;;;;0.68;0.57;;;18.10;78.10;;;;;;5022220;28;46396;-72
2023/01/08 03:55:17;;;;;;;1.35;0.55;;;18.10;78.00;;;;;;5022694;28;45473;-71
2023/01/08 03:57:44;;;;;;;1.38;0.60;;;18.10;77.80;;;;;;5022373;28;45452;-71
2023/01/08 04:00:13;;;;;;;1.83;0.60;;;18.10;78.00;;;;;;5022514;28;45469;-71
2023/01/08 04:02:41;;;;;;;0.55;0.45;;;18.10;78.20;;;;;;5022614;28;48082;-71
2023/01/08 04:05:09;;;;;;;2.20;1.08;;;18.10;78.30;;;;;;5022094;28;45322;-71
2023/01/08 04:07:35;;;;;;;1.42;0.60;;;18.10;78.20;;;;;;5022648;28;45249;-71
2023/01/08 04:10:02;;;;;;;0.80;0.57;;;18.20;78.20;;;;;;5022710;28;45609;-71
2023/01/08 04:12:29;;;;;;;0.60;0.57;;;18.20;78.20;;;;;;5020837;28;46902;-71
2023/01/08 04:14:56;;;;;;;0.68;0.45;;;18.20;78.30;;;;;;5022238;28;45341;-70
2023/01/08 04:17:24;;;;;;;0.77;0.30;;;18.20;77.80;;;;;;5021287;28;45366;-70
2023/01/08 04:19:51;;;;;;;0.75;0.50;;;18.20;77.70;;;;;;5022176;28;45281;-70
2023/01/08 04:22:17;;;;;;;1.15;0.47;;;18.10;77.50;;;;;;5021531;28;46336;-68
2023/01/08 04:24:44;;;;;;;0.50;0.40;;;18.20;77.70;;;;;;4983091;28;1114788;-71
2023/01/08 04:27:11;;;;;;;0.40;0.35;;;18.20;78.00;;;;;;5023048;28;45324;-70
2023/01/08 04:29:38;;;;;;;0.40;0.30;;;18.20;77.80;;;;;;5023196;28;45304;-71
2023/01/08 04:32:05;;;;;;;0.40;0.40;;;18.20;77.70;;;;;;5022621;28;46572;-70
2023/01/08 04:34:33;;;;;;;0.68;0.38;;;18.20;77.40;;;;;;5023054;28;45793;-71
2023/01/08 04:37:00;;;;;;;0.82;0.50;;;18.20;77.30;;;;;;5023010;28;45259;-71
2023/01/08 04:39:27;;;;;;;0.43;0.30;;;18.10;77.30;;;;;;5023258;28;45452;-71
2023/01/08 04:41:54;;;;;;;0.40;0.40;;;18.20;77.40;;;;;;5022455;28;46276;-70
2023/01/08 04:44:21;;;;;;;0.47;0.30;;;18.10;76.60;;;;;;5022967;28;45525;-70
2023/01/08 04:46:47;;;;;;;0.45;0.35;;;18.10;76.60;;;;;;5022934;28;45347;-71
2023/01/08 04:49:14;;;;;;;0.55;0.40;;;18.10;76.60;;;;;;5023007;28;45534;-71
2023/01/08 04:51:42;;;;;;;0.63;0.22;;;18.10;77.00;;;;;;5022680;28;46747;-71
2023/01/08 04:54:09;;;;;;;0.82;0.30;;;18.10;77.00;;;;;;5022998;28;45322;-71
2023/01/08 04:56:36;;;;;;;0.40;0.32;;;18.10;77.00;;;;;;5022459;28;45351;-71
2023/01/08 04:59:03;;;;;;;0.47;0.40;;;18.10;76.60;;;;;;5023055;28;45195;-71
2023/01/08 05:01:30;;;;;;;0.43;0.30;;;18.10;76.60;;;;;;5022808;28;45566;-71
2023/01/08 05:03:59;;;;;;;0.50;0.40;;;18.10;76.80;;;;;;5026171;28;45424;-71
2023/01/08 05:06:26;;;;;;;0.50;0.40;;;18.10;77.30;;;;;;5026215;28;45306;-70
2023/01/08 05:08:54;;;;;;;0.38;0.30;;;18.10;78.50;;;;;;5011663;28;45513;-71
2023/01/08 05:11:21;;;;;;;1.05;0.40;;;18.10;77.50;;;;;;5006160;28;45400;-70
2023/01/08 05:13:49;;;;;;;0.30;0.25;;;18.10;77.40;;;;;;5006092;28;45943;-71
2023/01/08 05:16:16;;;;;;;0.60;0.40;;;18.10;77.50;;;;;;5025289;28;45510;-70
2023/01/08 05:18:43;;;;;;;0.32;0.22;;;18.10;77.30;;;;;;5026072;28;45553;-71
2023/01/08 05:21:10;;;;;;;0.57;0.35;;;18.10;77.00;;;;;;5023361;28;45436;-71
2023/01/08 05:23:37;;;;;;;2.20;0.40;;;18.10;76.80;;;;;;5025334;28;45416;-71
2023/01/08 05:26:07;;;;;;;0.20;0.20;;;18.10;76.60;;;;;;5026096;28;45633;-71
2023/01/08 05:28:34;;;;;;;0.90;0.40;;;18.10;76.60;;;;;;5025799;28;45574;-71
2023/01/08 05:31:01;;;;;;;0.40;0.35;;;18.10;76.60;;;;;;5025102;28;46562;-72
2023/01/08 05:33:28;;;;;;;0.40;0.25;;;18.10;76.60;;;;;;5025033;28;45924;-70
2023/01/08 05:35:55;;;;;;;0.90;0.50;;;18.10;76.60;;;;;;5025677;28;45613;-70
2023/01/08 05:38:22;;;;;;;0.32;0.30;;;18.10;76.60;;;;;;5024764;28;45458;-71
2023/01/08 05:40:51;;;;;;;0.25;0.10;;;18.10;76.60;;;;;;5025130;28;46156;-70
2023/01/08 05:43:19;;;;;;;0.77;0.32;;;18.10;76.60;;;;;;5024750;28;45475;-70
2023/01/08 05:45:46;;;;;;;0.75;0.30;;;18.10;76.60;;;;;;5024997;28;45416;-70
2023/01/08 05:48:13;;;;;;;0.65;0.20;;;18.10;75.90;;;;;;5025466;28;45376;-71
2023/01/08 05:50:40;;;;;;;0.30;0.30;;;18.10;76.20;;;;;;5024381;28;45262;-71
2023/01/08 05:53:07;;;;;;;0.38;0.30;;;18.00;76.00;;;;;;5025387;28;45339;-71
2023/01/08 05:55:35;;;;;;;0.40;0.25;;;18.10;75.70;;;;;;5024454;28;45327;-70
2023/01/08 05:58:02;;;;;;;0.30;0.30;;;18.10;75.90;;;;;;5025035;28;45589;-71
2023/01/08 06:00:31;;;;;;;0.28;0.25;;;18.00;75.60;;;;;;5024493;28;46053;-71
2023/01/08 06:02:58;;;;;;;0.65;0.38;;;18.00;75.60;;;;;;5024652;28;45730;-71
2023/01/08 06:05:24;;;;;;;0.60;0.30;;;18.00;75.40;;;;;;5024828;28;45383;-71
2023/01/08 06:07:51;;;;;;;0.60;0.28;;;18.10;76.10;;;;;;5025051;28;45267;-70
2023/01/08 06:10:18;;;;;;;0.20;0.20;;;18.10;76.40;;;;;;5025006;28;45275;-70
2023/01/08 06:12:45;;;;;;;0.20;0.20;;;18.10;76.60;;;;;;5023884;28;45424;-71
2023/01/08 06:15:12;;;;;;;1.40;0.30;;;18.10;76.50;;;;;;5024205;28;45336;-70
2023/01/08 06:17:41;;;;;;;0.43;0.40;;;18.10;76.60;;;;;;5025120;28;45251;-70
2023/01/08 06:20:09;;;;;;;0.20;0.20;;;18.20;76.70;;;;;;5024950;28;47890;-70
2023/01/08 06:22:36;;;;;;;0.55;0.40;;;18.20;76.60;;;;;;5024967;28;45228;-71
2023/01/08 06:25:04;;;;;;;0.73;0.30;;;18.10;76.60;;;;;;5024735;28;45343;-71
2023/01/08 06:27:31;;;;;;;0.50;0.30;;;18.10;76.60;;;;;;5024907;28;45397;-70
2023/01/08 06:29:57;;;;;;;0.40;0.22;;;18.20;76.70;;;;;;5024240;28;47592;-71
2023/01/08 06:32:24;;;;;;;1.98;0.28;;;18.10;77.60;;;;;;5024292;28;45477;-70
2023/01/08 06:34:52;;;;;;;0.30;0.25;;;18.10;76.60;;;;;;5024730;28;45309;-70
2023/01/08 06:37:19;;;;;;;0.95;0.30;;;18.20;76.60;;;;;;5022516;28;45345;-71
2023/01/08 06:39:46;;;;;;;0.85;0.30;;;18.10;76.60;;;;;;5019402;28;46572;-70
2023/01/08 06:42:13;;;;;;;1.60;0.30;;;18.10;76.60;;;;;;5024459;28;45275;-71
2023/01/08 06:44:39;;;;;;;1.45;0.20;;;18.10;76.60;;;;;;5024790;28;45314;-71
2023/01/08 06:47:06;;;;;;;0.50;0.20;;;18.10;76.60;;;;;;5024589;28;45569;-70
2023/01/08 06:49:33;;;;;;;0.28;0.20;;;18.10;76.60;;;;;;5024312;28;47542;-70
2023/01/08 06:52:01;;;;;;;0.43;0.20;;;18.10;76.60;;;;;;5024571;28;45278;-71
2023/01/08 06:54:28;;;;;;;0.28;0.28;;;18.10;76.60;;;;;;5024061;28;45397;-71
2023/01/08 06:56:55;;;;;;;0.22;0.17;;;18.10;76.60;;;;;;5023690;28;45220;-70
2023/01/08 06:59:21;;;;;;;1.63;0.30;;;18.10;76.60;;;;;;5023276;28;45369;-70
2023/01/08 07:01:49;;;;;;;0.30;0.28;;;18.10;76.60;;;;;;5024412;28;45322;-71
2023/01/08 07:04:16;;;;;;;0.30;0.20;;;18.10;76.60;;;;;;5024147;28;45334;-71
2023/01/08 07:06:43;;;;;;;0.30;0.20;;;18.10;76.60;;;;;;5024483;28;45339;-71
2023/01/08 07:09:12;;;;;;;0.90;0.40;;;18.10;76.60;;;;;;5023805;28;46563;-70
2023/01/08 07:11:39;;;;;;;0.20;0.20;;;18.10;76.60;;;;;;5023687;28;45414;-70
2023/01/08 07:14:06;;;;;;;0.80;0.30;;;18.10;76.60;;;;;;5024322;28;45416;-70
2023/01/08 07:16:35;;;;;;;0.13;0.13;;;18.10;76.60;;;;;;5023510;28;45394;-71
2023/01/08 07:19:02;;;;;;;2.17;0.40;;;18.10;76.60;;;;;;5023308;28;46473;-70
2023/01/08 07:21:29;;;;;;;0.43;0.25;;;18.10;76.60;;;;;;5022735;28;45383;-71
2023/01/08 07:23:58;;;;;;;1.08;0.20;;;18.10;76.60;;;;;;5023175;28;45254;-71
2023/01/08 07:26:26;;;;;;;1.15;0.28;;;18.20;76.60;;;;;;5023638;28;45517;-71
2023/01/08 07:28:53;;;;;;;0.30;0.30;;;18.20;76.60;;;;;;5022853;28;46546;-71
2023/01/08 07:31:20;;;;;;;0.77;0.45;;;18.20;76.70;;;;;;5023023;28;45412;-71
2023/01/08 07:33:47;;;;;;;0.90;0.20;;;18.10;76.60;;;;;;5023284;28;45529;-70
2023/01/08 07:36:14;;;;;;;3.30;0.40;;;18.20;76.70;;;;;;5023348;28;45569;-71
2023/01/08 07:38:41;;;;;;;1.38;0.20;;;18.20;76.70;;;;;;5023037;28;47639;-70
2023/01/08 07:41:08;;;;;;;1.95;0.10;;;18.10;76.60;;;;;;5022876;28;45292;-72
2023/01/08 07:43:36;;;;;;;0.60;0.17;;;18.20;76.70;;;;;;5023456;28;45267;-70
2023/01/08 07:46:04;;;;;;;0.75;0.20;;;18.10;76.60;;;;;;5023375;28;45428;-71
2023/01/08 07:48:31;;;;;;;0.40;0.17;;;18.10;76.60;;;;;;5022852;28;46679;-70
2023/01/08 07:51:01;;;;;;;0.63;0.10;;;18.10;76.60;;;;;;5022580;28;45413;-71
2023/01/08 07:53:28;;;;;;;0.95;0.40;;;18.10;76.60;;;;;;5023101;28;45295;-71
2023/01/08 07:55:59;;;;;;;0.52;0.20;;;18.10;77.60;;;;;;5022978;28;45291;-72
2023/01/08 07:58:26;;;;;;;0.40;0.13;;;18.10;76.50;;;;;;5022482;28;47388;-71
2023/01/08 08:00:55;;;;;;;0.38;0.20;;;18.10;75.80;;;;;;5022022;28;45535;-71
2023/01/08 08:03:22;;;;;;;0.13;0.13;;;18.10;75.60;;;;;;5021988;28;45408;-71
2023/01/08 08:05:49;;;;;;;0.57;0.30;;;18.10;75.20;;;;;;5022842;28;45466;-71
2023/01/08 08:08:17;;;;;;;0.63;0.30;;;18.00;74.90;;;;;;5021428;28;45430;-71
2023/01/08 08:10:44;;;;;;;1.33;0.50;;;18.00;74.50;;;;;;5021502;28;45263;-70
2023/01/08 08:13:12;;;;;;;1.42;0.40;;;18.00;74.50;;;;;;5021647;28;45363;-70
2023/01/08 08:15:40;;;;;;;0.35;0.20;;;18.00;74.70;;;;;;5016666;28;45653;-70
2023/01/08 08:18:08;;;;;;;0.47;0.20;;;18.00;74.40;;;;;;5019035;28;46408;-69
2023/01/08 08:20:35;;;;;;;0.50;0.30;;;18.00;74.50;;;;;;5017533;28;45362;-70
2023/01/08 08:23:02;;;;;;;0.38;0.30;;;18.00;74.30;;;;;;5021544;28;45244;-70
2023/01/08 08:25:29;;;;;;;1.33;0.30;;;18.00;74.30;;;;;;5024087;28;45418;-69
2023/01/08 08:27:57;;;;;;;0.73;0.30;;;18.00;74.10;;;;;;5019475;28;45487;-70
2023/01/08 08:30:24;;;;;;;3.03;0.40;;;18.00;73.90;;;;;;5020024;28;45326;-71
2023/01/08 08:32:51;;;;;;;1.27;0.45;;;18.00;73.70;;;;;;5019852;28;45469;-70
2023/01/08 08:35:19;;;;;;;1.05;0.40;;;18.00;73.60;;;;;;5022217;28;45516;-70
2023/01/08 08:37:46;;;;;;;1.85;0.65;;;18.00;73.30;;;;;;5020531;28;47501;-70
2023/01/08 08:40:13;;;;;;;1.52;0.40;;;18.00;73.20;;;;;;5025067;28;45284;-70
2023/01/08 08:42:40;;;;;;;2.33;0.40;;;18.00;73.10;;;;;;5024605;28;45361;-71
2023/01/08 08:45:07;;;;;;;1.92;0.50;;;18.00;72.80;;;;;;5024376;28;45488;-70
2023/01/08 08:47:34;;;;;;;2.70;0.40;;;18.00;72.80;;;;;;5025190;28;47537;-70
2023/01/08 08:50:01;;;;;;;1.88;0.40;;;17.90;72.80;;;;;;5024405;28;45418;-71
2023/01/08 08:52:31;;;;;;;1.65;0.40;;;17.90;73.30;;;;;;5024781;28;45405;-70
2023/01/08 08:54:58;;;;;;;2.08;0.40;;;17.90;73.30;;;;;;5024857;28;45580;-71
2023/01/08 08:57:25;;;;;;;1.92;0.32;;;17.90;73.40;;;;;;5024200;28;47449;-70
2023/01/08 08:59:52;;;;;;;0.93;0.50;;;17.90;73.30;;;;;;5024534;28;45788;-70
2023/01/08 09:02:19;;;;;;;2.08;0.60;;;17.90;73.40;;;;;;5021834;28;45531;-70
2023/01/08 09:04:46;;;;;;;1.42;0.40;;;17.90;73.30;;;;;;5030968;28;45695;-70
2023/01/08 09:07:13;;;;;;;0.80;0.40;;;17.90;73.30;;;;;;5029304;28;47471;-70
2023/01/08 09:09:41;;;;;;;0.90;0.30;;;17.90;73.40;;;;;;5026634;28;45390;-70
2023/01/08 09:12:09;;;;;;;1.58;0.47;;;17.90;73.40;;;;;;5024328;28;45387;-70
2023/01/08 09:14:35;;;;;;;1.40;0.30;;;17.90;73.60;;;;;;5024054;28;45497;-70
2023/01/08 09:17:02;;;;;;;1.10;0.60;;;17.90;73.70;;;;;;5024992;28;47091;-71
2023/01/08 09:19:29;;;;;;;1.45;0.32;;;18.00;74.10;;;;;;5023468;28;45390;-70
2023/01/08 09:21:56;;;;;;;1.20;0.40;;;18.00;74.20;;;;;;5024643;28;45516;-69
2023/01/08 09:24:22;;;;;;;0.40;0.30;;;18.00;74.20;;;;;;5024203;28;45496;-70
2023/01/08 09:26:53;;;;;;;1.55;0.43;;;18.00;74.00;;;;;;5024579;28;46604;-70
2023/01/08 09:29:19;;;;;;;2.05;0.45;;;18.00;74.10;;;;;;5024871;28;45389;-70
2023/01/08 09:31:46;;;;;;;1.95;0.50;;;18.00;74.10;;;;;;5021931;28;45382;-70
2023/01/08 09:34:13;;;;;;;0.55;0.40;;;18.00;74.50;;;;;;5024669;28;45413;-70
2023/01/08 09:36:40;;;;;;;1.13;0.40;;;18.00;74.40;;;;;;5019627;28;46427;-70
2023/01/08 09:39:07;;;;;;;0.63;0.22;;;18.00;74.20;;;;;;5014438;28;45495;-70
2023/01/08 09:41:37;;;;;;;1.80;0.50;;;18.00;74.30;;;;;;5023260;28;45330;-71
2023/01/08 09:44:06;;;;;;;1.40;0.47;;;18.00;74.50;;;;;;5024386;28;45395;-71
2023/01/08 09:46:34;;;;;;;2.30;0.95;;;18.10;74.40;;;;;;5024626;28;47099;-70
2023/01/08 09:49:06;;;;;;;1.13;0.30;;;18.10;74.40;;;;;;5023959;28;45331;-70
2023/01/08 09:51:35;;;;;;;1.73;0.50;;;18.10;74.50;;;;;;5024803;28;45263;-70
2023/01/08 09:54:03;;;;;;;1.10;0.40;;;18.10;74.30;;;;;;5024420;28;45564;-70
2023/01/08 09:56:30;;;;;;;1.95;0.50;;;18.10;74.30;;;;;;5023999;28;45379;-70
2023/01/08 09:59:01;;;;;;;0.55;0.20;;;18.10;75.00;;;;;;5024455;28;45244;-70
2023/01/08 10:01:31;;;;;;;2.05;0.60;;;18.10;74.30;;;;;;5023853;28;45300;-70
2023/01/08 10:04:04;;;;;;;1.60;0.30;;;18.10;74.50;;;;;;5024694;28;45414;-70
2023/01/08 10:06:31;;;;;;;1.08;0.57;;;18.10;74.30;;;;;;5024158;28;45339;-70
2023/01/08 10:08:59;;;;;;;0.20;0.20;;;18.10;74.20;;;;;;5024026;28;45452;-70
2023/01/08 10:11:28;;;;;;;1.75;0.50;;;18.10;74.30;;;;;;5024028;28;45348;-70
2023/01/08 10:13:57;;;;;;;2.03;0.60;;;18.10;74.30;;;;;;5024014;28;45440;-70
2023/01/08 10:16:30;;;;;;;2.00;0.65;;;18.10;74.30;;;;;;5024181;28;45296;-70
2023/01/08 10:18:58;;;;;;;1.15;0.45;;;18.10;74.40;;;;;;5023721;28;45295;-70
2023/01/08 10:21:29;;;;;;;0.88;0.30;;;18.10;74.30;;;;;;5024004;28;45373;-70
2023/01/08 10:23:56;;;;;;;0.77;0.40;;;18.10;74.30;;;;;;5023474;28;45303;-70
2023/01/08 10:26:31;;;;;;;1.48;0.50;;;18.10;74.50;;;;;;5021550;28;46481;-70
2023/01/08 10:29:09;;;;;;;1.60;0.60;;;18.10;74.30;;;;;;5023836;28;45363;-70
2023/01/08 10:31:46;;;;;;;0.73;0.40;;;18.10;74.40;;;;;;5023350;28;45345;-70
2023/01/08 10:34:24;;;;;;;1.52;0.50;;;18.10;74.40;;;;;;5023589;28;45624;-71
2023/01/08 10:36:51;;;;;;;1.05;0.40;;;18.10;74.20;;;;;;5023373;28;48246;-70
2023/01/08 10:39:23;;;;;;;0.70;0.30;;;18.10;74.30;;;;;;5024173;28;45239;-71
2023/01/08 10:41:53;;;;;;;0.90;0.38;;;18.10;74.40;;;;;;5023147;28;45357;-70
2023/01/08 10:44:21;;;;;;;2.65;0.50;;;18.10;74.60;;;;;;5023999;28;45271;-71
2023/01/08 10:46:53;;;;;;;1.40;0.50;;;18.10;74.70;;;;;;5023024;28;46327;-70
2023/01/08 10:49:27;;;;;;;0.65;0.30;;;18.10;74.70;;;;;;5023596;28;45288;-70
2023/01/08 10:51:54;;;;;;;1.25;0.32;;;18.20;74.60;;;;;;5022921;28;45438;-70
2023/01/08 10:54:31;;;;;;;1.40;0.43;;;18.20;74.60;;;;;;5023397;28;45461;-71
2023/01/08 10:56:58;;;;;;;1.10;0.35;;;18.20;74.60;;;;;;5022487;28;46099;-71
2023/01/08 10:59:25;;;;;;;1.10;0.50;;;18.20;74.50;;;;;;5022480;28;45289;-70
2023/01/08 11:01:56;;;;;;;1.52;0.80;;;18.20;74.60;;;;;;5023268;28;45443;-70
2023/01/08 11:04:28;;;;;;;0.88;0.40;;;18.20;74.50;;;;;;5022754;28;45508;-70
2023/01/08 11:06:58;;;;;;;1.67;0.40;;;18.20;74.50;;;;;;5023411;28;46381;-70
2023/01/08 11:09:29;;;;;;;1.65;0.25;;;18.20;74.70;;;;;;5022807;28;45327;-71
2023/01/08 11:11:57;;;;;;;1.08;0.40;;;18.20;74.50;;;;;;5021351;28;45369;-70
2023/01/08 11:14:27;;;;;;;0.50;0.30;;;18.20;74.60;;;;;;5023199;28;45538;-70
2023/01/08 11:16:57;;;;;;;1.13;0.30;;;18.20;74.50;;;;;;5023298;28;45445;-69
2023/01/08 11:19:25;;;;;;;1.00;0.43;;;18.20;74.50;;;;;;5022872;28;45630;-70
2023/01/08 11:21:58;;;;;;;1.38;0.38;;;18.20;74.50;;;;;;5022679;28;45475;-70
2023/01/08 11:24:28;;;;;;;1.92;0.32;;;18.20;74.50;;;;;;5022936;28;45529;-70
2023/01/08 11:27:00;;;;;;;1.23;0.40;;;18.30;74.50;;;;;;5022217;28;46610;-70
2023/01/08 11:29:37;;;;;;;0.50;0.35;;;18.20;74.50;;;;;;5023025;28;45283;-70
2023/01/08 11:32:19;;;;;;;1.10;0.40;;;18.20;74.40;;;;;;5022121;28;45382;-70
2023/01/08 11:34:54;;;;;;;0.80;0.40;;;18.20;74.50;;;;;;5020493;28;45254;-70
2023/01/08 11:37:24;;;;;;;1.15;0.60;;;18.20;74.40;;;;;;5022655;28;47729;-71
2023/01/08 11:39:52;;;;;;;1.42;0.50;;;18.20;74.40;;;;;;5023051;28;45342;-70
2023/01/08 11:42:36;;;;;;;1.52;0.40;;;18.20;74.50;;;;;;5022407;28;45497;-70
2023/01/08 11:45:15;;;;;;;0.98;0.60;;;18.20;74.30;;;;;;5023278;28;45374;-70
2023/01/08 11:47:58;;;;;;;1.20;0.40;;;18.20;74.30;;;;;;5022488;28;46298;-70
2023/01/08 11:50:29;;;;;;;0.50;0.45;;;18.20;74.30;;;;;;5022218;28;45382;-70
2023/01/08 11:53:09;;;;;;;0.80;0.47;;;18.20;74.30;;;;;;5022590;28;45363;-69
2023/01/08 11:55:46;;;;;;;0.30;0.30;;;18.20;74.30;;;;;;5022355;28;45378;-72
2023/01/08 11:58:28;;;;;;;0.40;0.30;;;18.10;74.10;;;;;;5021736;28;47975;-70
2023/01/08 12:01:12;;;;;;;0.22;0.20;;;18.20;74.40;;;;;;5022053;28;45422;-70
2023/01/08 12:03:45;;;;;;;0.85;0.40;;;18.10;74.40;;;;;;5022745;28;45347;-70
2023/01/08 12:06:26;;;;;;;0.35;0.28;;;18.10;74.50;;;;;;5022372;28;45537;-70
2023/01/08 12:09:08;;;;;;;0.98;0.40;;;18.20;74.40;;;;;;5022303;28;45501;-68
2023/01/08 12:11:41;;;;;;;0.63;0.22;;;18.20;74.50;;;;;;5022148;28;45314;-70
2023/01/08 12:14:36;;;;;;;3.17;0.50;;;18.20;74.40;;;;;;5026400;28;45491;-70
2023/01/08 12:17:37;;;;;;;0.68;0.40;;;18.20;74.40;;;;;;5026304;28;45636;-70
2023/01/08 12:20:17;;;;;;;0.82;0.30;;;18.20;74.50;;;;;;5025703;28;46394;-70
2023/01/08 12:22:51;;;;;;;1.17;0.20;;;18.20;74.50;;;;;;5005648;28;45248;-70
2023/01/08 12:25:30;;;;;;;0.20;0.20;;;18.20;74.40;;;;;;5005366;28;45331;-70
2023/01/08 12:28:15;;;;;;;1.67;0.20;;;18.20;74.40;;;;;;5006482;28;45401;-70
2023/01/08 12:31:11;;;;;;;0.35;0.17;;;18.20;74.60;;;;;;5005337;28;46437;-70
2023/01/08 12:33:42;;;;;;;1.17;0.45;;;18.20;74.60;;;;;;5005895;28;46061;-71
2023/01/08 12:36:17;;;;;;;0.40;0.20;;;18.20;74.60;;;;;;5005253;28;45347;-70
2023/01/08 12:38:49;;;;;;;0.82;0.28;;;18.20;74.70;;;;;;5018998;28;45386;-70
2023/01/08 12:41:18;;;;;;;0.70;0.30;;;18.20;74.70;;;;;;5025036;28;45504;-70
2023/01/08 12:43:57;;;;;;;0.70;0.15;;;18.10;74.50;;;;;;5025517;28;45321;-70
2023/01/08 12:46:28;;;;;;;0.38;0.20;;;18.10;74.50;;;;;;5024686;28;45295;-70
2023/01/08 12:48:56;;;;;;;0.32;0.20;;;18.20;74.50;;;;;;5025551;28;45508;-70
2023/01/08 12:51:32;;;;;;;0.45;0.20;;;18.20;74.60;;;;;;5024988;28;47623;-70
2023/01/08 12:54:08;;;;;;;0.73;0.30;;;18.20;74.60;;;;;;5025705;28;45447;-70
2023/01/08 12:56:43;;;;;;;0.57;0.30;;;18.20;74.60;;;;;;5025150;28;45350;-70
2023/01/08 12:59:18;;;;;;;0.22;0.13;;;18.20;74.70;;;;;;5025462;28;45451;-70
2023/01/08 13:01:50;;;;;;;0.60;0.20;;;18.20;74.80;;;;;;5024925;28;45653;-70